Main page
METAR-TAF:

METAR-TAF

Airports :

Ponca City Regional Airport

Ponca City, Oklahoma, United States

latitude: 36-43-50N, longitude: 097-05-59W, elevation: 1007 ft

Current weather observation

The report was made 1 hour and 2 minutes ago, at 14:53 UTC
Wind 3 mph from variable directions
Temperature 82°F
Humidity 66%
Pressure 30.00 in. Hg
Visibility: 10 miles
Clear sky

METAR: KPNC 141453Z AUTO VRB03KT 10SM CLR 28/21 A3000 RMK AO2 SLP143 T02780211 50006

Time: 10:55 (15:55 UTC)

Forecast

The report was made 4 hours and 35 minutes ago, at 11:20 UTC
Forecast valid from 14 at 12 UTC to 15 at 12 UTC
Wind 6 mph from variable directions
Visibility: 6 miles
Broken clouds at a height of 25000 ft
From 14 at 1800 UTC
Wind 9 mph from the Southeast
Visibility: 6 miles
Few clouds at a height of 25000 ft

TAF: KPNC 141120Z 1412/1512 VRB05KT P6SM BKN250 FM141800 14008KT P6SM FEW250

Weather observations and forecasts of more than 4000 airports (METAR and TAF reports).

The available stations are represented by yellow and red dots on the map.

Hover mouse over dot to see the name of the station.

Then click to see weather observations and forecasts.

To change the map : click on the green buttons with a black cross to zoom in, on the green button with a dash to zoom out, or on the green arrows for adjacent maps.


METAR-TAF: